createdAt,value
2019-01-28T00:00:35.276Z,98372.21
2019-01-28T00:03:05.397Z,98370.63
2019-01-28T00:05:33.724Z,98348.46
2019-01-28T00:08:02.079Z,98368.48
2019-01-28T00:10:31.431Z,98371.17
2019-01-28T00:13:00.695Z,98373.84
2019-01-28T00:15:29.040Z,98368.23
2019-01-28T00:17:57.428Z,98373.03
2019-01-28T00:20:25.747Z,98363.67
2019-01-28T00:22:54.086Z,98372.22
2019-01-28T00:25:22.366Z,98365.02
2019-01-28T00:27:50.776Z,98377.31
2019-01-28T00:30:22.170Z,98365.56
2019-01-28T00:32:52.494Z,98372.24
2019-01-28T00:35:21.850Z,98367.72
2019-01-28T00:37:51.371Z,98368.75
2019-01-28T00:40:19.603Z,98372.24
2019-01-28T00:42:48.044Z,98360.76
2019-01-28T00:45:16.498Z,98369.58
2019-01-28T00:47:44.837Z,98349.55
2019-01-28T00:50:13.480Z,98344.45
2019-01-28T00:52:41.938Z,98356.48
2019-01-28T00:55:13.051Z,98349.00
2019-01-28T00:57:41.393Z,98328.18
2019-01-28T01:00:15.894Z,98342.07
2019-01-28T01:02:44.250Z,98349.02
2019-01-28T01:05:12.622Z,98349.02
2019-01-28T01:07:40.975Z,98349.02
2019-01-28T01:10:11.324Z,98347.70
2019-01-28T01:12:39.786Z,98351.71
2019-01-28T01:15:11.146Z,98350.90
2019-01-28T01:17:39.561Z,98342.88
2019-01-28T01:20:11.058Z,98341.55
2019-01-28T01:22:39.426Z,98351.45
2019-01-28T01:25:08.833Z,98335.97
2019-01-28T01:27:37.128Z,98343.42
2019-01-28T01:30:08.748Z,98338.36
2019-01-28T01:32:37.067Z,98337.30
2019-01-28T01:35:07.185Z,98332.22
2019-01-28T01:37:35.553Z,98331.16
2019-01-28T01:40:07.999Z,98338.64
2019-01-28T01:42:36.293Z,98320.20
2019-01-28T01:45:08.081Z,98319.13
2019-01-28T01:47:36.420Z,98310.86
2019-01-28T01:50:07.348Z,98323.39
2019-01-28T01:52:35.702Z,98325.28
2019-01-28T01:55:07.265Z,98323.67
2019-01-28T01:57:35.600Z,98276.96
2019-01-28T02:00:07.823Z,98318.33
2019-01-28T02:02:36.172Z,98287.91
2019-01-28T02:05:06.450Z,98306.86
2019-01-28T02:07:34.757Z,98318.34
2019-01-28T02:10:03.121Z,98315.67
2019-01-28T02:12:31.646Z,98317.02
2019-01-28T02:15:00.196Z,98310.88
2019-01-28T02:17:28.671Z,98317.28
2019-01-28T02:19:57.000Z,98321.30
2019-01-28T02:22:25.408Z,98311.96
2019-01-28T02:24:53.803Z,98310.34
2019-01-28T02:27:22.116Z,98318.88
2019-01-28T02:29:50.430Z,98311.94
2019-01-28T02:32:18.698Z,98312.49
2019-01-28T02:34:47.120Z,98318.61
2019-01-28T02:37:15.486Z,98307.14
2019-01-28T02:39:43.776Z,98323.44
2019-01-28T02:42:12.147Z,98319.44
2019-01-28T02:44:40.597Z,98324.23
2019-01-28T02:47:08.940Z,98316.50
2019-01-28T02:49:37.224Z,98314.08
2019-01-28T02:52:05.493Z,98312.22
2019-01-28T02:54:33.857Z,98313.28
2019-01-28T02:57:02.147Z,98325.03
2019-01-28T02:59:30.479Z,98314.09
2019-01-28T03:01:59.178Z,98319.15
2019-01-28T03:04:27.567Z,98305.55
2019-01-28T03:06:55.860Z,98318.38
2019-01-28T03:09:24.238Z,98312.48
2019-01-28T03:11:52.659Z,98313.27
2019-01-28T03:14:21.080Z,98316.75
2019-01-28T03:16:50.781Z,98311.94
2019-01-28T03:19:19.046Z,98310.63
2019-01-28T03:21:47.486Z,98307.69
2019-01-28T03:24:15.870Z,98297.81
2019-01-28T03:26:44.125Z,98305.54
2019-01-28T03:29:12.727Z,98307.69
2019-01-28T03:31:41.131Z,98299.39
2019-01-28T03:34:09.467Z,98300.20
2019-01-28T03:36:37.818Z,98307.41
2019-01-28T03:39:08.636Z,98304.20
2019-01-28T03:41:37.031Z,98316.49
2019-01-28T03:44:05.467Z,98311.67
2019-01-28T03:46:33.878Z,98307.42
2019-01-28T03:49:02.140Z,98308.23
2019-01-28T03:51:30.650Z,98302.33
2019-01-28T03:53:59.024Z,98304.46
2019-01-28T03:56:27.384Z,98309.82
2019-01-28T03:58:55.643Z,98309.02
2019-01-28T04:01:24.113Z,98306.34
2019-01-28T04:03:52.378Z,98312.47
2019-01-28T04:06:20.710Z,98300.73
2019-01-28T04:08:49.072Z,98300.73
2019-01-28T04:11:17.333Z,98307.94
2019-01-28T04:13:45.673Z,98303.38
2019-01-28T04:16:14.070Z,98302.61
2019-01-28T04:18:42.535Z,98292.98
2019-01-28T04:21:10.803Z,98294.84
2019-01-28T04:23:39.215Z,98287.91
2019-01-28T04:26:07.553Z,98291.63
2019-01-28T04:28:35.887Z,98282.55
2019-01-28T04:31:04.874Z,98284.41
2019-01-28T04:33:33.211Z,98283.61
2019-01-28T04:36:01.547Z,98283.88
2019-01-28T04:38:29.904Z,98282.82
2019-01-28T04:40:58.336Z,98283.61
2019-01-28T04:43:26.661Z,98283.88
2019-01-28T04:45:54.984Z,98284.69
2019-01-28T04:48:23.399Z,98284.67
2019-01-28T04:50:51.854Z,98294.80
2019-01-28T04:53:20.414Z,98287.61
2019-01-28T04:55:48.738Z,98292.14
2019-01-28T04:58:17.215Z,98298.02
2019-01-28T05:00:45.554Z,98292.66
2019-01-28T05:03:13.848Z,98300.65
2019-01-28T05:05:42.224Z,98299.05
2019-01-28T05:08:10.565Z,98299.57
2019-01-28T05:10:39.124Z,98299.55
2019-01-28T05:13:08.663Z,98302.77
2019-01-28T05:15:37.210Z,98303.28
2019-01-28T05:18:05.633Z,98306.20
2019-01-28T05:20:34.271Z,98310.48
2019-01-28T05:23:02.602Z,98303.52
2019-01-28T05:25:30.944Z,98304.30
2019-01-28T05:27:59.225Z,98310.45
2019-01-28T05:30:27.703Z,98312.83
2019-01-28T05:32:56.089Z,98314.70
2019-01-28T05:35:24.359Z,98313.60
2019-01-28T05:37:52.657Z,98318.41
2019-01-28T05:40:25.487Z,98318.95
2019-01-28T05:42:53.743Z,98316.27
2019-01-28T05:45:24.114Z,98318.66
2019-01-28T05:47:52.433Z,98322.41
2019-01-28T05:50:20.880Z,98325.56
2019-01-28T05:52:49.287Z,98322.62
2019-01-28T05:55:19.035Z,98321.02
2019-01-28T05:57:47.539Z,98332.53
2019-01-28T06:00:22.350Z,98327.98
2019-01-28T06:02:50.621Z,98319.50
2019-01-28T06:05:18.935Z,98335.19
2019-01-28T06:07:47.297Z,98339.97
2019-01-28T06:10:16.747Z,98341.58
2019-01-28T06:12:45.272Z,98342.33
2019-01-28T06:15:19.179Z,98353.81
2019-01-28T06:17:47.501Z,98354.13
2019-01-28T06:20:24.358Z,98359.44
2019-01-28T06:22:53.744Z,98369.61
2019-01-28T06:25:22.322Z,98370.91
2019-01-28T06:27:50.713Z,98378.14
2019-01-28T06:30:27.459Z,98380.78
2019-01-28T06:32:55.786Z,98390.13
2019-01-28T06:35:24.129Z,98401.60
2019-01-28T06:37:52.438Z,98412.05
2019-01-28T06:40:23.703Z,98418.44
2019-01-28T06:42:52.219Z,98425.16
2019-01-28T06:45:20.611Z,98423.80
2019-01-28T06:47:49.027Z,98433.15
2019-01-28T06:50:20.434Z,98436.91
2019-01-28T06:52:48.825Z,98446.29
2019-01-28T06:55:17.201Z,98456.20
2019-01-28T06:57:45.693Z,98450.88
2019-01-28T07:00:20.432Z,98454.09
2019-01-28T07:02:48.833Z,98465.88
2019-01-28T07:05:17.154Z,98469.61
2019-01-28T07:07:45.612Z,98478.19
2019-01-28T07:10:14.156Z,98484.87
2019-01-28T07:12:42.558Z,98489.19
2019-01-28T07:15:13.431Z,98498.29
2019-01-28T07:17:41.760Z,98505.77
2019-01-28T07:20:16.634Z,98518.64
2019-01-28T07:22:44.983Z,98526.91
2019-01-28T07:25:13.471Z,98535.23
2019-01-28T07:27:41.892Z,98541.91
2019-01-28T07:30:13.711Z,98554.19
2019-01-28T07:32:42.065Z,98561.98
2019-01-28T07:35:12.739Z,98572.40
2019-01-28T07:37:41.121Z,98576.15
2019-01-28T07:40:12.826Z,98588.70
2019-01-28T07:42:41.264Z,98591.66
2019-01-28T07:45:15.801Z,98596.73
2019-01-28T07:47:44.230Z,98600.48
2019-01-28T07:50:12.596Z,98615.98
2019-01-28T07:52:40.973Z,98619.19
2019-01-28T07:55:09.959Z,98632.83
2019-01-28T07:57:38.329Z,98622.13
2019-01-28T08:00:10.002Z,98638.47
2019-01-28T08:02:38.270Z,98642.48
2019-01-28T08:05:10.054Z,98643.53
2019-01-28T08:07:38.449Z,98652.64
2019-01-28T08:10:09.960Z,98645.68
2019-01-28T08:12:38.226Z,98663.85
2019-01-28T08:15:09.921Z,98663.08
2019-01-28T08:17:38.200Z,98675.89
2019-01-28T08:20:15.823Z,98678.31
2019-01-28T08:22:44.195Z,98680.70
2019-01-28T08:25:15.857Z,98687.14
2019-01-28T08:27:44.337Z,98690.90
2019-01-28T08:30:19.044Z,98705.33
2019-01-28T08:32:47.417Z,98700.25
2019-01-28T08:35:16.005Z,98705.87
2019-01-28T08:37:44.387Z,98706.16
2019-01-28T08:40:15.891Z,98720.87
2019-01-28T08:42:44.374Z,98724.35
2019-01-28T08:45:13.556Z,98727.28
2019-01-28T08:47:41.811Z,98731.04
2019-01-28T08:50:16.475Z,98738.53
2019-01-28T08:52:44.973Z,98748.98
2019-01-28T08:55:16.140Z,98748.70
2019-01-28T08:57:44.591Z,98753.80
2019-01-28T09:00:16.487Z,98756.75
2019-01-28T09:02:45.223Z,98764.22
2019-01-28T09:05:16.142Z,98762.36
2019-01-28T09:07:44.522Z,98771.47
2019-01-28T09:10:16.160Z,98775.73
2019-01-28T09:12:44.554Z,98779.74
2019-01-28T09:15:24.496Z,98791.27
2019-01-28T09:17:52.871Z,98791.27
2019-01-28T09:20:24.462Z,98793.97
2019-01-28T09:22:52.750Z,98798.25
2019-01-28T09:25:21.145Z,98805.75
2019-01-28T09:27:49.698Z,98803.34
2019-01-28T09:30:21.446Z,98814.60
2019-01-28T09:32:49.787Z,98819.68
2019-01-28T09:35:18.200Z,98828.50
2019-01-28T09:37:46.546Z,98827.97
2019-01-28T09:40:18.327Z,98836.81
2019-01-28T09:42:46.684Z,98846.17
2019-01-28T09:45:18.422Z,98852.62
2019-01-28T09:47:46.737Z,98855.02
2019-01-28T09:50:16.399Z,98877.52
2019-01-28T09:52:44.826Z,98875.39
2019-01-28T09:55:14.255Z,98868.68
2019-01-28T09:57:42.697Z,98867.63
2019-01-28T10:00:29.576Z,98874.05
2019-01-28T10:02:57.921Z,98883.95
2019-01-28T10:05:26.271Z,98885.02
2019-01-28T10:07:54.660Z,98890.39
2019-01-28T10:10:23.041Z,98896.30
2019-01-28T10:12:51.365Z,98908.34
2019-01-28T10:15:28.769Z,98915.57
2019-01-28T10:17:55.947Z,98920.91
2019-01-28T10:20:44.458Z,98927.84
2019-01-28T10:23:09.288Z,98927.84
2019-01-28T10:25:37.660Z,98927.31
2019-01-28T10:28:06.208Z,98933.73
2019-01-28T10:30:37.174Z,98943.91
2019-01-28T10:33:06.746Z,98945.24
2019-01-28T10:35:35.358Z,98953.27
2019-01-28T10:38:05.703Z,98959.93
2019-01-28T10:40:37.390Z,98966.13
2019-01-28T10:43:06.811Z,98961.84
2019-01-28T10:45:35.215Z,98962.36
2019-01-28T10:48:05.798Z,98968.53
2019-01-28T10:50:34.102Z,98977.09
2019-01-28T10:53:02.363Z,98985.40
2019-01-28T10:55:30.653Z,98986.45
2019-01-28T10:57:58.938Z,98995.02
2019-01-28T11:00:33.179Z,98993.96
2019-01-28T11:03:01.527Z,99006.02
2019-01-28T11:05:29.954Z,99007.06
2019-01-28T11:07:58.385Z,99006.78
2019-01-28T11:10:29.320Z,99011.08
2019-01-28T11:12:57.792Z,99007.34
2019-01-28T11:15:30.359Z,99017.72
2019-01-28T11:18:01.845Z,99027.06
2019-01-28T11:20:30.266Z,99025.52
2019-01-28T11:22:58.698Z,99030.98
2019-01-28T11:25:30.548Z,99036.87
2019-01-28T11:27:59.026Z,99045.19
2019-01-28T11:30:43.422Z,99055.14
2019-01-28T11:33:11.899Z,99053.47
2019-01-28T11:35:40.677Z,99071.69
2019-01-28T11:38:09.134Z,99079.95
2019-01-28T11:40:37.555Z,99082.67
2019-01-28T11:43:05.962Z,99092.98
2019-01-28T11:45:43.663Z,99094.30
2019-01-28T11:48:12.130Z,99110.44
2019-01-28T11:50:40.609Z,99110.13
2019-01-28T11:53:09.022Z,99106.36
2019-01-28T11:55:37.462Z,99122.08
2019-01-28T11:58:05.904Z,99131.20
2019-01-28T12:00:56.823Z,99136.20
2019-01-28T12:03:25.261Z,99145.27
2019-01-28T12:05:53.590Z,99159.14
2019-01-28T12:08:21.850Z,99167.98
2019-01-28T12:10:50.242Z,99178.05
2019-01-28T12:13:18.511Z,99184.42
2019-01-28T12:15:46.851Z,99189.72
2019-01-28T12:18:15.285Z,99189.38
2019-01-28T12:20:45.886Z,99201.14
2019-01-28T12:23:13.793Z,99207.88
2019-01-28T12:25:42.288Z,99213.94
2019-01-28T12:28:10.498Z,99226.03
2019-01-28T12:30:38.856Z,99231.17
2019-01-28T12:33:07.321Z,99235.88
2019-01-28T12:35:35.683Z,99242.70
2019-01-28T12:38:04.963Z,99253.59
2019-01-28T12:40:33.333Z,99260.05
2019-01-28T12:43:01.647Z,99258.92
2019-01-28T12:45:30.620Z,99270.22
2019-01-28T12:47:58.993Z,99275.70
2019-01-28T12:50:27.645Z,99277.87
2019-01-28T12:52:55.918Z,99293.59
2019-01-28T12:55:26.933Z,99284.97
2019-01-28T12:57:55.395Z,99300.69
2019-01-28T13:00:38.601Z,99309.32
2019-01-28T13:03:07.226Z,99302.95
2019-01-28T13:05:35.489Z,99321.64
2019-01-28T13:08:04.894Z,99332.16
2019-01-28T13:10:33.277Z,99297.55
2019-01-28T13:13:01.606Z,99333.14
2019-01-28T13:15:32.042Z,99340.61
2019-01-28T13:18:00.409Z,99328.78
2019-01-28T13:20:28.952Z,99343.22
2019-01-28T13:22:57.451Z,99363.26
2019-01-28T13:25:29.080Z,99359.58
2019-01-28T13:27:57.360Z,99371.11
2019-01-28T13:30:29.208Z,99366.09
2019-01-28T13:32:57.651Z,99375.58
2019-01-28T13:35:25.926Z,99383.79
2019-01-28T13:37:54.351Z,99381.31
2019-01-28T13:40:22.800Z,99394.67
2019-01-28T13:42:51.076Z,99390.53
2019-01-28T13:45:22.071Z,99406.78
2019-01-28T13:47:51.390Z,99406.98
2019-01-28T13:50:26.362Z,99415.36
2019-01-28T13:52:55.288Z,99410.79
2019-01-28T13:55:23.760Z,99415.84
2019-01-28T13:57:52.611Z,99445.67
2019-01-28T14:00:31.311Z,99437.17
2019-01-28T14:02:59.873Z,99447.30
2019-01-28T14:05:29.501Z,99452.13
2019-01-28T14:07:58.853Z,99456.84
2019-01-28T14:10:27.957Z,99464.29
2019-01-28T14:12:56.372Z,99470.23
2019-01-28T14:15:36.530Z,99483.42
2019-01-28T14:18:06.523Z,99482.05
2019-01-28T14:20:37.611Z,99485.72
2019-01-28T14:23:06.051Z,99500.30
2019-01-28T14:25:34.319Z,99514.42
2019-01-28T14:28:05.592Z,99513.56
2019-01-28T14:30:36.281Z,99520.23
2019-01-28T14:33:07.189Z,99532.42
2019-01-28T14:35:35.684Z,99508.36
2019-01-28T14:38:06.367Z,99537.77
2019-01-28T14:40:34.816Z,99544.35
2019-01-28T14:43:03.202Z,99542.84
2019-01-28T14:45:31.485Z,99505.73
2019-01-28T14:47:59.864Z,99565.36
2019-01-28T14:50:31.758Z,99574.48
2019-01-28T14:53:00.048Z,99584.69
2019-01-28T14:55:28.354Z,99587.83
2019-01-28T14:57:56.892Z,99607.21
2019-01-28T15:00:40.136Z,99604.39
2019-01-28T15:03:08.426Z,99599.52
2019-01-28T15:05:36.784Z,99617.09
2019-01-28T15:08:06.315Z,99621.39
2019-01-28T15:10:34.660Z,99628.41
2019-01-28T15:13:03.059Z,99617.73
2019-01-28T15:15:36.158Z,99622.73
2019-01-28T15:18:06.492Z,99636.34
2019-01-28T15:20:34.843Z,99610.03
2019-01-28T15:23:03.264Z,99634.95
2019-01-28T15:25:31.715Z,99642.45
2019-01-28T15:28:00.275Z,99650.97
2019-01-28T15:30:32.352Z,99656.30
2019-01-28T15:33:02.707Z,99659.28
2019-01-28T15:35:31.290Z,99665.89
2019-01-28T15:37:59.907Z,99670.17
2019-01-28T15:40:32.243Z,99677.30
2019-01-28T15:43:01.243Z,99680.27
2019-01-28T15:45:35.669Z,99681.04
2019-01-28T15:48:05.810Z,99691.16
2019-01-28T15:50:34.267Z,99695.63
2019-01-28T15:53:02.625Z,99690.70
2019-01-28T15:55:39.816Z,99703.13
2019-01-28T15:58:09.492Z,99702.39
2019-01-28T16:00:41.461Z,99710.91
2019-01-28T16:03:10.093Z,99709.06
2019-01-28T16:05:38.606Z,99709.63
2019-01-28T16:08:07.634Z,99725.18
2019-01-28T16:10:35.983Z,99726.22
2019-01-28T16:13:04.602Z,99731.28
2019-01-28T16:15:35.860Z,99729.65
2019-01-28T16:18:08.931Z,99737.66
2019-01-28T16:20:36.563Z,99735.45
2019-01-28T16:23:06.198Z,99749.77
2019-01-28T16:25:34.738Z,99749.25
2019-01-28T16:28:06.176Z,99758.89
2019-01-28T16:30:44.262Z,99764.50
2019-01-28T16:33:18.955Z,99769.48
2019-01-28T16:35:48.415Z,99779.27
2019-01-28T16:38:17.024Z,99781.37
2019-01-28T16:40:45.549Z,99791.98
2019-01-28T16:43:14.092Z,99793.47
2019-01-28T16:45:43.441Z,99798.23
2019-01-28T16:48:11.890Z,99802.17
2019-01-28T16:50:41.108Z,99810.02
2019-01-28T16:53:09.643Z,99806.98
2019-01-28T16:55:40.218Z,99812.95
2019-01-28T16:58:11.455Z,99817.34
2019-01-28T17:00:55.553Z,99832.09
2019-01-28T17:03:24.027Z,99777.77
2019-01-28T17:05:54.218Z,99830.98
2019-01-28T17:08:22.612Z,99834.34
2019-01-28T17:10:50.934Z,99842.17
2019-01-28T17:13:20.020Z,99847.22
2019-01-28T17:15:48.373Z,99850.55
2019-01-28T17:18:17.098Z,99854.69
2019-01-28T17:20:52.767Z,99854.09
2019-01-28T17:23:21.615Z,99858.91
2019-01-28T17:25:50.108Z,99867.87
2019-01-28T17:28:22.676Z,99878.46
2019-01-28T17:30:53.918Z,99878.39
2019-01-28T17:33:22.535Z,99892.09
2019-01-28T17:35:52.215Z,99894.75
2019-01-28T17:38:23.365Z,99895.64
2019-01-28T17:40:51.858Z,99908.16
2019-01-28T17:43:24.381Z,99907.27
2019-01-28T17:46:00.846Z,99910.52
2019-01-28T17:48:29.821Z,99915.79
2019-01-28T17:50:58.378Z,99916.09
2019-01-28T17:53:26.958Z,99913.42
2019-01-28T17:55:55.768Z,99915.34
2019-01-28T17:58:36.931Z,99922.01
2019-01-28T18:01:08.006Z,99924.53
2019-01-28T18:03:37.179Z,99928.88
2019-01-28T18:06:12.847Z,99933.25
2019-01-28T18:08:43.862Z,99935.64
2019-01-28T18:11:13.513Z,99945.69
2019-01-28T18:13:42.745Z,99943.19
2019-01-28T18:16:12.146Z,99942.36
2019-01-28T18:18:40.600Z,99949.02
2019-01-28T18:21:16.456Z,99949.61
2019-01-28T18:23:45.806Z,99957.41
2019-01-28T18:26:14.220Z,99965.98
2019-01-28T18:28:42.572Z,99963.91
2019-01-28T18:31:10.934Z,99971.83
2019-01-28T18:33:39.327Z,99975.16
2019-01-28T18:36:07.738Z,99977.14
2019-01-28T18:38:36.102Z,99982.55
2019-01-28T18:41:05.310Z,99975.75
2019-01-28T18:43:35.383Z,99975.75
2019-01-28T18:46:06.143Z,99985.09
2019-01-28T18:48:34.609Z,99986.36
2019-01-28T18:51:02.959Z,99992.51
2019-01-28T18:53:31.226Z,99998.28
2019-01-28T18:55:59.530Z,100007.17
2019-01-28T18:58:27.959Z,100014.42
2019-01-28T19:00:56.301Z,100019.63
2019-01-28T19:03:24.774Z,100027.70
2019-01-28T19:05:54.874Z,100027.02
2019-01-28T19:08:24.914Z,100035.27
2019-01-28T19:10:54.856Z,100039.66
2019-01-28T19:13:27.518Z,100030.53
2019-01-28T19:16:00.334Z,100034.45
2019-01-28T19:18:30.274Z,100042.52
2019-01-28T19:21:07.498Z,100044.49
2019-01-28T19:23:30.237Z,100044.52
2019-01-28T19:25:58.624Z,100042.14
2019-01-28T19:28:26.964Z,100049.82
2019-01-28T19:30:55.372Z,100055.30
2019-01-28T19:33:23.713Z,100061.41
2019-01-28T19:35:52.118Z,100061.75
2019-01-28T19:38:22.345Z,100066.09
2019-01-28T19:40:50.896Z,100081.78
2019-01-28T19:43:19.160Z,100083.45
2019-01-28T19:45:47.490Z,100081.92
2019-01-28T19:48:15.892Z,100087.89
2019-01-28T19:50:44.451Z,100087.32
2019-01-28T19:53:12.970Z,100092.92
2019-01-28T19:55:41.395Z,100097.14
2019-01-28T19:58:09.847Z,100095.30
2019-01-28T20:00:38.328Z,100097.73
2019-01-28T20:03:08.207Z,100095.92
2019-01-28T20:05:36.638Z,100098.89
2019-01-28T20:08:05.024Z,100097.34
2019-01-28T20:10:33.470Z,100106.78
2019-01-28T20:13:01.894Z,100104.83
2019-01-28T20:15:30.403Z,100109.73
2019-01-28T20:17:58.899Z,100111.28
2019-01-28T20:20:27.270Z,100113.86
2019-01-28T20:22:59.197Z,100117.83
2019-01-28T20:25:27.517Z,100115.66
2019-01-28T20:27:55.939Z,100120.94
2019-01-28T20:30:26.946Z,100136.30
2019-01-28T20:32:55.310Z,100130.95
2019-01-28T20:35:23.603Z,100130.70
2019-01-28T20:37:52.124Z,100135.43
2019-01-28T20:40:21.293Z,100140.95
2019-01-28T20:42:50.097Z,100138.71
2019-01-28T20:45:27.731Z,100140.27
2019-01-28T20:47:58.437Z,100140.80
2019-01-28T20:50:37.365Z,100143.39
2019-01-28T20:53:06.456Z,100157.01
2019-01-28T20:55:34.940Z,100163.99
2019-01-28T20:58:03.414Z,100156.84
2019-01-28T21:00:31.828Z,100159.92
2019-01-28T21:03:00.689Z,100154.48
2019-01-28T21:05:32.575Z,100163.29
2019-01-28T21:08:01.517Z,100167.00
2019-01-28T21:10:30.637Z,100174.25
2019-01-28T21:12:59.073Z,100175.39
2019-01-28T21:15:27.391Z,100181.22
2019-01-28T21:17:55.684Z,100180.21
2019-01-28T21:20:24.356Z,100187.14
2019-01-28T21:22:52.805Z,100193.51
2019-01-28T21:25:23.951Z,100193.29
2019-01-28T21:27:52.811Z,100194.20
2019-01-28T21:30:24.263Z,100191.14
2019-01-28T21:32:53.267Z,100190.85
2019-01-28T21:35:23.680Z,100198.01
2019-01-28T21:38:00.339Z,100198.42
2019-01-28T21:40:23.982Z,100198.73
2019-01-28T21:42:52.442Z,100206.30
2019-01-28T21:45:21.075Z,100210.70
2019-01-28T21:47:55.996Z,100210.39
2019-01-28T21:50:27.226Z,100214.47
2019-01-28T21:52:55.692Z,100213.87
2019-01-28T21:55:24.163Z,100213.97
2019-01-28T21:57:54.994Z,100219.28
2019-01-28T22:00:26.295Z,100219.89
2019-01-28T22:02:56.579Z,100218.17
2019-01-28T22:05:26.521Z,100218.87
2019-01-28T22:07:56.582Z,100227.67
2019-01-28T22:10:27.080Z,100228.41
2019-01-28T22:12:56.630Z,100239.84
2019-01-28T22:15:24.957Z,100236.16
2019-01-28T22:17:53.397Z,100228.69
2019-01-28T22:20:21.821Z,100231.57
2019-01-28T22:22:50.416Z,100236.58
2019-01-28T22:25:18.920Z,100240.56
2019-01-28T22:27:47.298Z,100245.28
2019-01-28T22:30:21.370Z,100243.31
2019-01-28T22:32:49.899Z,100241.07
2019-01-28T22:35:18.295Z,100253.14
2019-01-28T22:37:46.708Z,100250.20
2019-01-28T22:40:18.333Z,100256.63
2019-01-28T22:42:46.758Z,100257.35
2019-01-28T22:45:20.434Z,100265.02
2019-01-28T22:47:48.822Z,100271.88
2019-01-28T22:50:18.642Z,100278.20
2019-01-28T22:52:46.937Z,100272.06
2019-01-28T22:55:18.473Z,100277.19
2019-01-28T22:57:46.848Z,100279.03
2019-01-28T23:00:22.779Z,100279.62
2019-01-28T23:02:51.091Z,100279.02
2019-01-28T23:05:19.441Z,100282.59
2019-01-28T23:07:47.851Z,100278.10
2019-01-28T23:10:16.206Z,100285.86
2019-01-28T23:12:44.585Z,100281.27
2019-01-28T23:15:12.957Z,100290.58
2019-01-28T23:17:41.341Z,100298.55
2019-01-28T23:20:09.784Z,100307.28
2019-01-28T23:22:38.144Z,100304.72
2019-01-28T23:25:06.926Z,100302.75
2019-01-28T23:27:35.230Z,100310.86
2019-01-28T23:30:07.421Z,100311.98
2019-01-28T23:32:35.725Z,100321.59
2019-01-28T23:35:05.824Z,100306.88
2019-01-28T23:37:34.306Z,100306.67
2019-01-28T23:40:02.634Z,100311.68
2019-01-28T23:42:31.080Z,100319.88
2019-01-28T23:44:59.374Z,100321.80
2019-01-28T23:47:27.782Z,100326.59
2019-01-28T23:49:56.056Z,100326.08
2019-01-28T23:52:25.205Z,100330.47
2019-01-28T23:54:54.096Z,100335.77
2019-01-28T23:57:22.382Z,100328.22
2019-01-28T23:59:50.743Z,100331.46
